Pagina principale
METAR-TAF:

METAR-TAF

Aeroporti :

Ajaccio, Francia

Aeroporto di Ajaccio Napoleone Bonaparte

latitudine: 41-55N, longitudine: 008-48E, altezza: 6 m

Osservazione

Il bollettino è stato emesso 42 minuti fa, alle 07:30 UTC
Vento 7 kt da sud/sud-ovest, variando fra sud e sud-ovest
Temperature 23°C
Umidità 69%
Pressione 1019 hPa
Visibilità 10 km o più
nessuna nube inferiore a 1500 m e nessun cumulonembo

METAR: LFKJ 270730Z 20007KT 170V230 CAVOK 23/17 Q1019 NOSIG

Ora: 10:12 (08:12 UTC)

Previsione

Il bollettino è stato emesso 6 ore e 12 minuti fa, alle 02:00 UTC
Previsione valida dal 27 alle 03 UTC al 28 alle 03 UTC
Vento 5 kt da nord-est
Visibilità 10 km o più
nessuna nube inferiore a 1500 m e nessun cumulonembo
Temporaneamente
dal 27 alle 09 UTC al 27 alle 15 UTC
Vento 10 kt da sud-ovest

TAF: LFKJ 270200Z 2703/2803 05005KT CAVOK TEMPO 2709/2715 22010KT

Osservazioni e previsioni meteorologiche di più di 4000 aeroporti (messaggi METAR e TAF).

Le stazioni disponibili sono rappresentate dai dischi gialli e rossi sulla carta.

Puntare il mouse per vedere il nome della stazione.

Clicca sopra per visualizzare le osservazioni e previsioni meteorologiche.

Per cambiare la mappa : fare clic sui pulsanti verdi con una croce nera per ingrandire, il pulsante verde con un trattino per diminuire, o sulla freccia verde per le mappe adiacenti.


METAR-TAF: